sensor_id;sensor_type;location;lat;lon;timestamp;P1;durP1;ratioP1;P2;durP2;ratioP2
14381;SDS011;7275;50.328;8.720;2023-06-10T00:02:26;5.20;;;4.67;;
14381;SDS011;7275;50.328;8.720;2023-06-10T00:04:55;5.23;;;4.40;;
14381;SDS011;7275;50.328;8.720;2023-06-10T00:07:24;4.77;;;4.33;;
14381;SDS011;7275;50.328;8.720;2023-06-10T00:09:51;4.97;;;4.33;;
14381;SDS011;7275;50.328;8.720;2023-06-10T00:12:19;8.63;;;4.87;;
14381;SDS011;7275;50.328;8.720;2023-06-10T00:14:47;4.83;;;4.40;;
14381;SDS011;7275;50.328;8.720;2023-06-10T00:17:16;5.10;;;4.53;;
14381;SDS011;7275;50.328;8.720;2023-06-10T00:19:44;4.93;;;4.53;;
14381;SDS011;7275;50.328;8.720;2023-06-10T00:22:14;4.93;;;4.40;;
14381;SDS011;7275;50.328;8.720;2023-06-10T00:24:43;5.27;;;4.10;;
14381;SDS011;7275;50.328;8.720;2023-06-10T00:27:10;4.27;;;3.87;;
14381;SDS011;7275;50.328;8.720;2023-06-10T00:29:38;4.23;;;3.87;;
14381;SDS011;7275;50.328;8.720;2023-06-10T00:32:06;5.97;;;4.10;;
14381;SDS011;7275;50.328;8.720;2023-06-10T00:34:35;4.80;;;4.40;;
14381;SDS011;7275;50.328;8.720;2023-06-10T00:37:02;4.53;;;4.13;;
14381;SDS011;7275;50.328;8.720;2023-06-10T00:39:31;4.63;;;4.23;;
14381;SDS011;7275;50.328;8.720;2023-06-10T00:41:59;4.80;;;4.40;;
14381;SDS011;7275;50.328;8.720;2023-06-10T00:44:27;5.10;;;4.60;;
14381;SDS011;7275;50.328;8.720;2023-06-10T00:46:54;4.77;;;4.37;;
14381;SDS011;7275;50.328;8.720;2023-06-10T00:49:22;4.67;;;4.27;;
14381;SDS011;7275;50.328;8.720;2023-06-10T00:51:51;4.73;;;4.33;;
14381;SDS011;7275;50.328;8.720;2023-06-10T00:54:20;5.93;;;4.40;;
14381;SDS011;7275;50.328;8.720;2023-06-10T00:56:49;5.40;;;4.90;;
14381;SDS011;7275;50.328;8.720;2023-06-10T00:59:17;5.40;;;4.37;;
14381;SDS011;7275;50.328;8.720;2023-06-10T01:01:45;4.97;;;4.50;;
14381;SDS011;7275;50.328;8.720;2023-06-10T01:04:14;5.10;;;4.60;;
14381;SDS011;7275;50.328;8.720;2023-06-10T01:06:45;5.40;;;4.47;;
14381;SDS011;7275;50.328;8.720;2023-06-10T01:09:24;5.30;;;4.80;;
14381;SDS011;7275;50.328;8.720;2023-06-10T01:12:05;5.10;;;4.60;;
14381;SDS011;7275;50.328;8.720;2023-06-10T01:14:36;5.00;;;4.60;;
14381;SDS011;7275;50.328;8.720;2023-06-10T01:17:04;5.77;;;4.43;;
14381;SDS011;7275;50.328;8.720;2023-06-10T01:19:35;4.60;;;4.20;;
14381;SDS011;7275;50.328;8.720;2023-06-10T01:22:04;4.50;;;4.10;;
14381;SDS011;7275;50.328;8.720;2023-06-10T01:24:32;5.03;;;4.27;;
14381;SDS011;7275;50.328;8.720;2023-06-10T01:27:01;4.50;;;4.20;;
14381;SDS011;7275;50.328;8.720;2023-06-10T01:29:33;5.00;;;4.57;;
14381;SDS011;7275;50.328;8.720;2023-06-10T01:32:06;4.70;;;4.30;;
14381;SDS011;7275;50.328;8.720;2023-06-10T01:34:39;5.23;;;4.73;;
14381;SDS011;7275;50.328;8.720;2023-06-10T01:37:11;4.40;;;4.00;;
14381;SDS011;7275;50.328;8.720;2023-06-10T01:39:43;5.23;;;4.20;;
14381;SDS011;7275;50.328;8.720;2023-06-10T01:42:12;4.87;;;4.37;;
14381;SDS011;7275;50.328;8.720;2023-06-10T01:44:40;5.27;;;4.77;;
14381;SDS011;7275;50.328;8.720;2023-06-10T01:47:08;4.93;;;4.43;;
14381;SDS011;7275;50.328;8.720;2023-06-10T01:49:36;4.77;;;4.37;;
14381;SDS011;7275;50.328;8.720;2023-06-10T01:52:04;4.90;;;4.50;;
14381;SDS011;7275;50.328;8.720;2023-06-10T01:54:34;5.30;;;4.80;;
14381;SDS011;7275;50.328;8.720;2023-06-10T01:57:01;4.90;;;4.40;;
14381;SDS011;7275;50.328;8.720;2023-06-10T01:59:29;6.40;;;4.57;;
14381;SDS011;7275;50.328;8.720;2023-06-10T02:01:57;4.63;;;4.23;;
14381;SDS011;7275;50.328;8.720;2023-06-10T02:04:25;5.07;;;4.20;;
14381;SDS011;7275;50.328;8.720;2023-06-10T02:06:52;4.50;;;4.10;;
14381;SDS011;7275;50.328;8.720;2023-06-10T02:09:22;5.00;;;4.40;;
14381;SDS011;7275;50.328;8.720;2023-06-10T02:11:51;4.73;;;4.33;;
14381;SDS011;7275;50.328;8.720;2023-06-10T02:14:18;4.83;;;4.43;;
14381;SDS011;7275;50.328;8.720;2023-06-10T02:16:47;4.60;;;4.20;;
14381;SDS011;7275;50.328;8.720;2023-06-10T02:19:14;5.00;;;4.50;;
14381;SDS011;7275;50.328;8.720;2023-06-10T02:21:43;4.70;;;4.30;;
14381;SDS011;7275;50.328;8.720;2023-06-10T02:24:10;4.83;;;4.43;;
14381;SDS011;7275;50.328;8.720;2023-06-10T02:26:38;4.70;;;4.30;;
14381;SDS011;7275;50.328;8.720;2023-06-10T02:29:07;4.47;;;4.13;;
14381;SDS011;7275;50.328;8.720;2023-06-10T02:31:35;4.87;;;4.43;;
14381;SDS011;7275;50.328;8.720;2023-06-10T02:34:04;4.93;;;4.40;;
14381;SDS011;7275;50.328;8.720;2023-06-10T02:36:31;4.57;;;4.10;;
14381;SDS011;7275;50.328;8.720;2023-06-10T02:39:02;5.20;;;4.30;;
14381;SDS011;7275;50.328;8.720;2023-06-10T02:41:30;4.83;;;4.40;;
14381;SDS011;7275;50.328;8.720;2023-06-10T02:43:58;4.40;;;4.00;;
14381;SDS011;7275;50.328;8.720;2023-06-10T02:46:27;4.33;;;3.93;;
14381;SDS011;7275;50.328;8.720;2023-06-10T02:48:55;5.10;;;4.10;;
14381;SDS011;7275;50.328;8.720;2023-06-10T02:51:23;4.70;;;4.20;;
14381;SDS011;7275;50.328;8.720;2023-06-10T02:53:51;4.80;;;4.23;;
14381;SDS011;7275;50.328;8.720;2023-06-10T02:56:18;4.80;;;4.03;;
14381;SDS011;7275;50.328;8.720;2023-06-10T02:58:46;4.47;;;4.07;;
14381;SDS011;7275;50.328;8.720;2023-06-10T03:01:14;5.53;;;4.40;;
14381;SDS011;7275;50.328;8.720;2023-06-10T03:03:43;4.33;;;3.93;;
14381;SDS011;7275;50.328;8.720;2023-06-10T03:06:12;4.63;;;4.10;;
14381;SDS011;7275;50.328;8.720;2023-06-10T03:08:41;4.63;;;4.23;;
14381;SDS011;7275;50.328;8.720;2023-06-10T03:11:08;4.43;;;4.03;;
14381;SDS011;7275;50.328;8.720;2023-06-10T03:13:36;4.40;;;4.00;;
14381;SDS011;7275;50.328;8.720;2023-06-10T03:16:05;5.20;;;4.40;;
14381;SDS011;7275;50.328;8.720;2023-06-10T03:18:34;4.43;;;4.03;;
14381;SDS011;7275;50.328;8.720;2023-06-10T03:21:03;4.00;;;3.70;;
14381;SDS011;7275;50.328;8.720;2023-06-10T03:23:30;4.40;;;4.00;;
14381;SDS011;7275;50.328;8.720;2023-06-10T03:25:59;4.23;;;3.83;;
14381;SDS011;7275;50.328;8.720;2023-06-10T03:28:26;4.53;;;4.03;;
14381;SDS011;7275;50.328;8.720;2023-06-10T03:30:54;4.50;;;4.10;;
14381;SDS011;7275;50.328;8.720;2023-06-10T03:33:22;4.50;;;4.10;;
14381;SDS011;7275;50.328;8.720;2023-06-10T03:35:51;4.40;;;4.00;;
14381;SDS011;7275;50.328;8.720;2023-06-10T03:38:20;4.70;;;3.90;;
14381;SDS011;7275;50.328;8.720;2023-06-10T03:40:47;4.47;;;4.03;;
14381;SDS011;7275;50.328;8.720;2023-06-10T03:43:15;4.63;;;4.10;;
14381;SDS011;7275;50.328;8.720;2023-06-10T03:45:43;4.47;;;4.07;;
14381;SDS011;7275;50.328;8.720;2023-06-10T03:48:11;4.37;;;3.97;;
14381;SDS011;7275;50.328;8.720;2023-06-10T03:50:39;4.10;;;3.70;;
14381;SDS011;7275;50.328;8.720;2023-06-10T03:53:06;4.53;;;4.13;;
14381;SDS011;7275;50.328;8.720;2023-06-10T03:55:35;4.13;;;3.80;;
14381;SDS011;7275;50.328;8.720;2023-06-10T03:58:03;4.20;;;3.80;;
14381;SDS011;7275;50.328;8.720;2023-06-10T04:00:31;4.57;;;4.17;;
14381;SDS011;7275;50.328;8.720;2023-06-10T04:03:07;4.40;;;3.87;;
14381;SDS011;7275;50.328;8.720;2023-06-10T04:05:41;4.30;;;3.90;;
14381;SDS011;7275;50.328;8.720;2023-06-10T04:08:09;4.80;;;4.40;;
14381;SDS011;7275;50.328;8.720;2023-06-10T04:10:38;4.20;;;3.80;;
14381;SDS011;7275;50.328;8.720;2023-06-10T04:13:06;4.20;;;3.80;;
14381;SDS011;7275;50.328;8.720;2023-06-10T04:15:33;4.63;;;4.00;;
14381;SDS011;7275;50.328;8.720;2023-06-10T04:18:01;4.33;;;3.93;;
14381;SDS011;7275;50.328;8.720;2023-06-10T04:20:28;4.00;;;3.70;;
14381;SDS011;7275;50.328;8.720;2023-06-10T04:22:56;4.17;;;3.77;;
14381;SDS011;7275;50.328;8.720;2023-06-10T04:25:24;4.67;;;3.97;;
14381;SDS011;7275;50.328;8.720;2023-06-10T04:27:53;4.70;;;3.87;;
14381;SDS011;7275;50.328;8.720;2023-06-10T04:30:21;4.13;;;3.77;;
14381;SDS011;7275;50.328;8.720;2023-06-10T04:32:49;4.20;;;3.80;;
14381;SDS011;7275;50.328;8.720;2023-06-10T04:35:17;4.30;;;3.87;;
14381;SDS011;7275;50.328;8.720;2023-06-10T04:37:44;4.37;;;3.97;;
14381;SDS011;7275;50.328;8.720;2023-06-10T04:40:12;4.47;;;4.07;;
14381;SDS011;7275;50.328;8.720;2023-06-10T04:42:42;4.73;;;3.80;;
14381;SDS011;7275;50.328;8.720;2023-06-10T04:45:11;4.97;;;4.27;;
14381;SDS011;7275;50.328;8.720;2023-06-10T04:47:39;4.30;;;3.90;;
14381;SDS011;7275;50.328;8.720;2023-06-10T04:50:07;4.00;;;3.70;;
14381;SDS011;7275;50.328;8.720;2023-06-10T04:52:35;4.27;;;3.93;;
14381;SDS011;7275;50.328;8.720;2023-06-10T04:55:03;4.40;;;4.00;;
14381;SDS011;7275;50.328;8.720;2023-06-10T04:57:31;4.30;;;3.90;;
14381;SDS011;7275;50.328;8.720;2023-06-10T04:59:59;4.53;;;3.83;;
14381;SDS011;7275;50.328;8.720;2023-06-10T05:02:28;4.33;;;3.93;;
14381;SDS011;7275;50.328;8.720;2023-06-10T05:04:56;4.23;;;3.83;;
14381;SDS011;7275;50.328;8.720;2023-06-10T05:07:24;4.00;;;3.70;;
14381;SDS011;7275;50.328;8.720;2023-06-10T05:09:51;4.50;;;4.10;;
14381;SDS011;7275;50.328;8.720;2023-06-10T05:12:19;4.40;;;4.00;;
14381;SDS011;7275;50.328;8.720;2023-06-10T05:14:47;4.80;;;4.10;;
14381;SDS011;7275;50.328;8.720;2023-06-10T05:17:15;4.13;;;3.73;;
14381;SDS011;7275;50.328;8.720;2023-06-10T05:19:44;4.63;;;4.20;;
14381;SDS011;7275;50.328;8.720;2023-06-10T05:22:13;4.23;;;3.87;;
14381;SDS011;7275;50.328;8.720;2023-06-10T05:24:42;4.60;;;4.20;;
14381;SDS011;7275;50.328;8.720;2023-06-10T05:27:10;4.43;;;4.03;;
14381;SDS011;7275;50.328;8.720;2023-06-10T05:29:38;4.30;;;3.90;;
14381;SDS011;7275;50.328;8.720;2023-06-10T05:32:06;4.20;;;3.80;;
14381;SDS011;7275;50.328;8.720;2023-06-10T05:34:35;4.23;;;3.80;;
14381;SDS011;7275;50.328;8.720;2023-06-10T05:37:04;4.70;;;4.17;;
14381;SDS011;7275;50.328;8.720;2023-06-10T05:39:32;4.43;;;4.03;;
14381;SDS011;7275;50.328;8.720;2023-06-10T05:42:03;4.07;;;3.67;;
14381;SDS011;7275;50.328;8.720;2023-06-10T05:44:33;4.67;;;4.10;;
14381;SDS011;7275;50.328;8.720;2023-06-10T05:47:01;4.13;;;3.73;;
14381;SDS011;7275;50.328;8.720;2023-06-10T05:49:28;4.03;;;3.63;;
14381;SDS011;7275;50.328;8.720;2023-06-10T05:51:56;4.10;;;3.80;;
14381;SDS011;7275;50.328;8.720;2023-06-10T05:54:26;4.10;;;3.73;;
14381;SDS011;7275;50.328;8.720;2023-06-10T05:56:55;4.23;;;3.83;;
14381;SDS011;7275;50.328;8.720;2023-06-10T05:59:23;4.53;;;3.70;;
14381;SDS011;7275;50.328;8.720;2023-06-10T06:01:51;4.50;;;4.10;;
14381;SDS011;7275;50.328;8.720;2023-06-10T06:04:18;4.20;;;3.83;;
14381;SDS011;7275;50.328;8.720;2023-06-10T06:06:46;4.57;;;4.18;;
14381;SDS011;7275;50.328;8.720;2023-06-10T06:09:14;4.57;;;4.10;;
14381;SDS011;7275;50.328;8.720;2023-06-10T06:11:43;4.88;;;4.10;;
14381;SDS011;7275;50.328;8.720;2023-06-10T06:14:10;4.57;;;4.18;;
14381;SDS011;7275;50.328;8.720;2023-06-10T06:16:38;8.30;;;4.32;;
14381;SDS011;7275;50.328;8.720;2023-06-10T06:19:06;4.35;;;4.03;;
14381;SDS011;7275;50.328;8.720;2023-06-10T06:21:34;4.65;;;4.20;;
14381;SDS011;7275;50.328;8.720;2023-06-10T06:24:01;4.47;;;4.07;;
14381;SDS011;7275;50.328;8.720;2023-06-10T06:26:29;4.45;;;3.97;;
14381;SDS011;7275;50.328;8.720;2023-06-10T06:28:58;5.70;;;3.88;;
14381;SDS011;7275;50.328;8.720;2023-06-10T06:31:26;4.38;;;3.97;;
14381;SDS011;7275;50.328;8.720;2023-06-10T06:33:53;4.20;;;3.80;;
14381;SDS011;7275;50.328;8.720;2023-06-10T06:36:21;4.47;;;3.70;;
14381;SDS011;7275;50.328;8.720;2023-06-10T06:38:49;4.50;;;4.10;;
14381;SDS011;7275;50.328;8.720;2023-06-10T06:41:16;5.38;;;4.05;;
14381;SDS011;7275;50.328;8.720;2023-06-10T06:43:44;5.38;;;4.20;;
14381;SDS011;7275;50.328;8.720;2023-06-10T06:46:13;4.32;;;3.92;;
14381;SDS011;7275;50.328;8.720;2023-06-10T06:48:43;5.03;;;4.10;;
14381;SDS011;7275;50.328;8.720;2023-06-10T06:51:11;4.10;;;3.70;;
14381;SDS011;7275;50.328;8.720;2023-06-10T06:53:38;5.32;;;4.20;;
14381;SDS011;7275;50.328;8.720;2023-06-10T06:56:10;4.45;;;4.03;;
14381;SDS011;7275;50.328;8.720;2023-06-10T06:58:38;5.47;;;4.28;;
14381;SDS011;7275;50.328;8.720;2023-06-10T07:01:06;4.80;;;4.30;;
14381;SDS011;7275;50.328;8.720;2023-06-10T07:03:35;5.68;;;3.88;;
14381;SDS011;7275;50.328;8.720;2023-06-10T07:06:02;5.28;;;4.60;;
14381;SDS011;7275;50.328;8.720;2023-06-10T07:08:30;6.55;;;4.00;;
14381;SDS011;7275;50.328;8.720;2023-06-10T07:10:58;4.72;;;4.25;;
14381;SDS011;7275;50.328;8.720;2023-06-10T07:13:25;4.90;;;3.85;;
14381;SDS011;7275;50.328;8.720;2023-06-10T07:15:53;4.60;;;4.20;;
14381;SDS011;7275;50.328;8.720;2023-06-10T07:18:21;4.72;;;4.10;;
14381;SDS011;7275;50.328;8.720;2023-06-10T07:20:50;4.15;;;3.75;;
14381;SDS011;7275;50.328;8.720;2023-06-10T07:23:17;4.53;;;4.13;;
14381;SDS011;7275;50.328;8.720;2023-06-10T07:25:45;4.40;;;4.00;;
14381;SDS011;7275;50.328;8.720;2023-06-10T07:28:12;4.40;;;4.00;;
14381;SDS011;7275;50.328;8.720;2023-06-10T07:30:40;4.47;;;3.97;;
14381;SDS011;7275;50.328;8.720;2023-06-10T07:33:08;5.10;;;3.90;;
14381;SDS011;7275;50.328;8.720;2023-06-10T07:35:37;5.65;;;4.15;;
14381;SDS011;7275;50.328;8.720;2023-06-10T07:38:06;4.50;;;4.10;;
14381;SDS011;7275;50.328;8.720;2023-06-10T07:40:33;5.47;;;3.85;;
14381;SDS011;7275;50.328;8.720;2023-06-10T07:43:01;5.20;;;3.90;;
14381;SDS011;7275;50.328;8.720;2023-06-10T07:45:29;4.78;;;4.30;;
14381;SDS011;7275;50.328;8.720;2023-06-10T07:47:57;4.72;;;4.10;;
14381;SDS011;7275;50.328;8.720;2023-06-10T07:50:24;4.40;;;4.00;;
14381;SDS011;7275;50.328;8.720;2023-06-10T07:52:52;4.60;;;4.13;;
14381;SDS011;7275;50.328;8.720;2023-06-10T07:55:21;4.45;;;4.05;;
14381;SDS011;7275;50.328;8.720;2023-06-10T07:57:49;4.28;;;3.88;;
14381;SDS011;7275;50.328;8.720;2023-06-10T08:00:17;4.57;;;4.10;;
14381;SDS011;7275;50.328;8.720;2023-06-10T08:02:45;4.72;;;4.15;;
14381;SDS011;7275;50.328;8.720;2023-06-10T08:05:13;4.95;;;4.30;;
14381;SDS011;7275;50.328;8.720;2023-06-10T08:07:41;4.50;;;4.10;;
14381;SDS011;7275;50.328;8.720;2023-06-10T08:10:09;5.53;;;4.20;;
14381;SDS011;7275;50.328;8.720;2023-06-10T08:12:39;5.38;;;4.10;;
14381;SDS011;7275;50.328;8.720;2023-06-10T08:15:07;4.40;;;4.00;;
14381;SDS011;7275;50.328;8.720;2023-06-10T08:17:36;4.20;;;3.80;;
14381;SDS011;7275;50.328;8.720;2023-06-10T08:20:05;4.30;;;3.90;;
14381;SDS011;7275;50.328;8.720;2023-06-10T08:22:33;4.47;;;4.07;;
14381;SDS011;7275;50.328;8.720;2023-06-10T08:25:01;4.15;;;3.75;;
14381;SDS011;7275;50.328;8.720;2023-06-10T08:27:29;4.40;;;4.00;;
14381;SDS011;7275;50.328;8.720;2023-06-10T08:29:58;4.10;;;3.80;;
14381;SDS011;7275;50.328;8.720;2023-06-10T08:32:27;5.10;;;4.20;;
14381;SDS011;7275;50.328;8.720;2023-06-10T08:34:54;4.28;;;3.88;;
14381;SDS011;7275;50.328;8.720;2023-06-10T08:37:22;5.13;;;3.97;;
14381;SDS011;7275;50.328;8.720;2023-06-10T08:39:50;5.20;;;3.80;;
14381;SDS011;7275;50.328;8.720;2023-06-10T08:42:19;3.80;;;3.50;;
14381;SDS011;7275;50.328;8.720;2023-06-10T08:44:53;3.63;;;3.33;;
14381;SDS011;7275;50.328;8.720;2023-06-10T08:47:24;3.97;;;3.58;;
14381;SDS011;7275;50.328;8.720;2023-06-10T08:49:53;3.78;;;3.47;;
14381;SDS011;7275;50.328;8.720;2023-06-10T08:52:23;4.05;;;3.75;;
14381;SDS011;7275;50.328;8.720;2023-06-10T08:54:54;3.70;;;3.40;;
14381;SDS011;7275;50.328;8.720;2023-06-10T08:57:26;4.13;;;3.72;;
14381;SDS011;7275;50.328;8.720;2023-06-10T08:59:55;3.72;;;3.40;;
14381;SDS011;7275;50.328;8.720;2023-06-10T09:02:25;3.78;;;3.40;;
14381;SDS011;7275;50.328;8.720;2023-06-10T09:04:55;4.13;;;3.70;;
14381;SDS011;7275;50.328;8.720;2023-06-10T09:07:23;4.75;;;3.28;;
14381;SDS011;7275;50.328;8.720;2023-06-10T09:09:52;3.90;;;3.60;;
14381;SDS011;7275;50.328;8.720;2023-06-10T09:12:21;4.15;;;3.75;;
14381;SDS011;7275;50.328;8.720;2023-06-10T09:14:48;5.28;;;3.55;;
14381;SDS011;7275;50.328;8.720;2023-06-10T09:17:16;3.85;;;3.47;;
14381;SDS011;7275;50.328;8.720;2023-06-10T09:19:45;3.88;;;3.58;;
14381;SDS011;7275;50.328;8.720;2023-06-10T09:22:13;4.03;;;3.67;;
14381;SDS011;7275;50.328;8.720;2023-06-10T09:24:41;4.68;;;3.75;;
14381;SDS011;7275;50.328;8.720;2023-06-10T09:27:09;4.20;;;3.50;;
14381;SDS011;7275;50.328;8.720;2023-06-10T09:29:46;3.97;;;3.58;;
14381;SDS011;7275;50.328;8.720;2023-06-10T09:32:15;3.90;;;3.50;;
14381;SDS011;7275;50.328;8.720;2023-06-10T09:34:46;3.63;;;3.33;;
14381;SDS011;7275;50.328;8.720;2023-06-10T09:37:19;3.80;;;3.45;;
14381;SDS011;7275;50.328;8.720;2023-06-10T09:40:00;5.53;;;3.63;;
14381;SDS011;7275;50.328;8.720;2023-06-10T09:42:30;3.25;;;3.05;;
14381;SDS011;7275;50.328;8.720;2023-06-10T09:45:00;3.90;;;3.60;;
14381;SDS011;7275;50.328;8.720;2023-06-10T09:47:27;3.78;;;3.47;;
14381;SDS011;7275;50.328;8.720;2023-06-10T09:49:57;4.03;;;3.63;;
14381;SDS011;7275;50.328;8.720;2023-06-10T09:52:25;4.05;;;3.65;;
14381;SDS011;7275;50.328;8.720;2023-06-10T09:54:54;4.38;;;3.85;;
14381;SDS011;7275;50.328;8.720;2023-06-10T09:57:26;4.63;;;3.80;;
14381;SDS011;7275;50.328;8.720;2023-06-10T09:59:58;3.70;;;3.40;;
14381;SDS011;7275;50.328;8.720;2023-06-10T10:02:26;3.88;;;3.50;;
14381;SDS011;7275;50.328;8.720;2023-06-10T10:04:57;5.78;;;4.05;;
14381;SDS011;7275;50.328;8.720;2023-06-10T10:07:29;4.35;;;3.28;;
14381;SDS011;7275;50.328;8.720;2023-06-10T10:09:57;6.47;;;4.00;;
14381;SDS011;7275;50.328;8.720;2023-06-10T10:12:25;4.10;;;3.70;;
14381;SDS011;7275;50.328;8.720;2023-06-10T10:14:53;4.72;;;3.30;;
14381;SDS011;7275;50.328;8.720;2023-06-10T10:17:23;4.03;;;3.35;;
14381;SDS011;7275;50.328;8.720;2023-06-10T10:19:53;3.63;;;3.25;;
14381;SDS011;7275;50.328;8.720;2023-06-10T10:22:26;4.18;;;3.20;;
14381;SDS011;7275;50.328;8.720;2023-06-10T10:24:59;3.50;;;3.20;;
14381;SDS011;7275;50.328;8.720;2023-06-10T10:27:33;3.70;;;3.40;;
14381;SDS011;7275;50.328;8.720;2023-06-10T10:30:03;3.60;;;3.30;;
14381;SDS011;7275;50.328;8.720;2023-06-10T10:32:35;3.25;;;3.03;;
14381;SDS011;7275;50.328;8.720;2023-06-10T10:35:11;3.13;;;2.83;;
14381;SDS011;7275;50.328;8.720;2023-06-10T10:37:46;3.58;;;2.97;;
14381;SDS011;7275;50.328;8.720;2023-06-10T10:40:15;3.10;;;2.80;;
14381;SDS011;7275;50.328;8.720;2023-06-10T10:42:43;3.80;;;2.85;;
14381;SDS011;7275;50.328;8.720;2023-06-10T10:45:12;2.80;;;2.60;;
14381;SDS011;7275;50.328;8.720;2023-06-10T10:47:40;4.80;;;3.00;;
14381;SDS011;7275;50.328;8.720;2023-06-10T10:50:14;3.13;;;2.88;;
14381;SDS011;7275;50.328;8.720;2023-06-10T10:52:51;3.03;;;2.60;;
14381;SDS011;7275;50.328;8.720;2023-06-10T10:55:21;2.85;;;2.55;;
14381;SDS011;7275;50.328;8.720;2023-06-10T10:57:56;3.05;;;2.72;;
14381;SDS011;7275;50.328;8.720;2023-06-10T11:00:29;3.10;;;2.72;;
14381;SDS011;7275;50.328;8.720;2023-06-10T11:02:58;4.53;;;2.90;;
14381;SDS011;7275;50.328;8.720;2023-06-10T11:05:31;2.88;;;2.65;;
14381;SDS011;7275;50.328;8.720;2023-06-10T11:08:04;3.10;;;2.80;;
14381;SDS011;7275;50.328;8.720;2023-06-10T11:10:32;2.92;;;2.72;;
14381;SDS011;7275;50.328;8.720;2023-06-10T11:13:12;3.00;;;2.70;;
14381;SDS011;7275;50.328;8.720;2023-06-10T11:15:43;2.75;;;2.55;;
14381;SDS011;7275;50.328;8.720;2023-06-10T11:18:14;2.97;;;2.70;;
14381;SDS011;7275;50.328;8.720;2023-06-10T11:20:56;2.83;;;2.63;;
14381;SDS011;7275;50.328;8.720;2023-06-10T11:23:40;4.18;;;2.60;;
14381;SDS011;7275;50.328;8.720;2023-06-10T11:26:13;3.92;;;3.00;;
14381;SDS011;7275;50.328;8.720;2023-06-10T11:28:43;3.22;;;2.92;;
14381;SDS011;7275;50.328;8.720;2023-06-10T11:31:29;3.40;;;3.10;;
14381;SDS011;7275;50.328;8.720;2023-06-10T11:33:58;3.33;;;3.00;;
14381;SDS011;7275;50.328;8.720;2023-06-10T11:36:27;3.22;;;2.92;;
14381;SDS011;7275;50.328;8.720;2023-06-10T11:38:58;2.75;;;2.55;;
14381;SDS011;7275;50.328;8.720;2023-06-10T11:41:26;3.45;;;2.70;;
14381;SDS011;7275;50.328;8.720;2023-06-10T11:43:57;3.10;;;2.80;;
14381;SDS011;7275;50.328;8.720;2023-06-10T11:46:29;2.92;;;2.70;;
14381;SDS011;7275;50.328;8.720;2023-06-10T11:48:57;4.25;;;2.90;;
14381;SDS011;7275;50.328;8.720;2023-06-10T11:51:26;3.38;;;2.80;;
14381;SDS011;7275;50.328;8.720;2023-06-10T11:53:55;3.03;;;2.80;;
14381;SDS011;7275;50.328;8.720;2023-06-10T11:56:25;2.75;;;2.55;;
14381;SDS011;7275;50.328;8.720;2023-06-10T11:58:54;2.92;;;2.72;;
14381;SDS011;7275;50.328;8.720;2023-06-10T12:01:26;3.72;;;3.42;;
14381;SDS011;7275;50.328;8.720;2023-06-10T12:03:58;3.97;;;3.58;;
14381;SDS011;7275;50.328;8.720;2023-06-10T12:06:27;5.22;;;4.78;;
14381;SDS011;7275;50.328;8.720;2023-06-10T12:09:04;3.90;;;3.60;;
14381;SDS011;7275;50.328;8.720;2023-06-10T12:11:50;3.30;;;3.00;;
14381;SDS011;7275;50.328;8.720;2023-06-10T12:17:22;2.75;;;2.53;;
14381;SDS011;7275;50.328;8.720;2023-06-10T12:19:51;3.10;;;2.90;;
14381;SDS011;7275;50.328;8.720;2023-06-10T12:22:18;3.40;;;3.10;;
14381;SDS011;7275;50.328;8.720;2023-06-10T12:24:57;3.28;;;2.97;;
14381;SDS011;7275;50.328;8.720;2023-06-10T12:27:28;3.30;;;3.00;;
14381;SDS011;7275;50.328;8.720;2023-06-10T12:29:56;3.03;;;2.80;;
14381;SDS011;7275;50.328;8.720;2023-06-10T12:32:34;3.20;;;2.90;;
14381;SDS011;7275;50.328;8.720;2023-06-10T12:35:03;3.60;;;2.92;;
14381;SDS011;7275;50.328;8.720;2023-06-10T12:37:33;3.45;;;3.15;;
14381;SDS011;7275;50.328;8.720;2023-06-10T12:40:01;3.40;;;2.85;;
14381;SDS011;7275;50.328;8.720;2023-06-10T12:42:31;3.90;;;2.92;;
14381;SDS011;7275;50.328;8.720;2023-06-10T12:45:00;3.42;;;3.13;;
14381;SDS011;7275;50.328;8.720;2023-06-10T12:47:29;3.67;;;3.30;;
14381;SDS011;7275;50.328;8.720;2023-06-10T12:49:59;3.83;;;3.08;;
14381;SDS011;7275;50.328;8.720;2023-06-10T12:52:26;3.72;;;2.90;;
14381;SDS011;7275;50.328;8.720;2023-06-10T12:54:54;3.40;;;3.10;;
14381;SDS011;7275;50.328;8.720;2023-06-10T12:57:22;3.40;;;3.10;;
14381;SDS011;7275;50.328;8.720;2023-06-10T12:59:51;3.10;;;2.90;;
14381;SDS011;7275;50.328;8.720;2023-06-10T13:02:20;3.25;;;2.85;;
14381;SDS011;7275;50.328;8.720;2023-06-10T13:04:50;3.00;;;2.80;;
14381;SDS011;7275;50.328;8.720;2023-06-10T13:07:18;3.30;;;3.00;;
14381;SDS011;7275;50.328;8.720;2023-06-10T13:09:46;2.85;;;2.65;;
14381;SDS011;7275;50.328;8.720;2023-06-10T13:12:15;3.20;;;2.80;;
14381;SDS011;7275;50.328;8.720;2023-06-10T13:14:57;3.47;;;2.97;;
14381;SDS011;7275;50.328;8.720;2023-06-10T13:17:24;3.25;;;2.95;;
14381;SDS011;7275;50.328;8.720;2023-06-10T13:19:52;3.60;;;3.30;;
14381;SDS011;7275;50.328;8.720;2023-06-10T13:22:20;2.88;;;2.67;;
14381;SDS011;7275;50.328;8.720;2023-06-10T13:24:47;2.92;;;2.72;;
14381;SDS011;7275;50.328;8.720;2023-06-10T13:27:15;3.20;;;2.90;;
14381;SDS011;7275;50.328;8.720;2023-06-10T13:29:43;3.33;;;2.88;;
14381;SDS011;7275;50.328;8.720;2023-06-10T13:32:12;2.67;;;2.47;;
14381;SDS011;7275;50.328;8.720;2023-06-10T13:34:40;3.00;;;2.70;;
14381;SDS011;7275;50.328;8.720;2023-06-10T13:37:08;3.15;;;2.83;;
14381;SDS011;7275;50.328;8.720;2023-06-10T13:39:35;2.88;;;2.67;;
14381;SDS011;7275;50.328;8.720;2023-06-10T13:42:03;2.97;;;2.70;;
14381;SDS011;7275;50.328;8.720;2023-06-10T13:44:32;2.75;;;2.55;;
14381;SDS011;7275;50.328;8.720;2023-06-10T13:47:02;3.05;;;2.67;;
14381;SDS011;7275;50.328;8.720;2023-06-10T13:49:32;2.80;;;2.60;;
14381;SDS011;7275;50.328;8.720;2023-06-10T13:51:59;3.72;;;2.90;;
14381;SDS011;7275;50.328;8.720;2023-06-10T13:54:27;2.78;;;2.55;;
14381;SDS011;7275;50.328;8.720;2023-06-10T13:56:55;3.00;;;2.80;;
14381;SDS011;7275;50.328;8.720;2023-06-10T13:59:22;3.17;;;2.90;;
14381;SDS011;7275;50.328;8.720;2023-06-10T14:01:50;2.85;;;2.60;;
14381;SDS011;7275;50.328;8.720;2023-06-10T14:04:17;2.88;;;2.67;;
14381;SDS011;7275;50.328;8.720;2023-06-10T14:06:46;3.00;;;2.80;;
14381;SDS011;7275;50.328;8.720;2023-06-10T14:09:14;2.90;;;2.70;;
14381;SDS011;7275;50.328;8.720;2023-06-10T14:11:42;2.95;;;2.65;;
14381;SDS011;7275;50.328;8.720;2023-06-10T14:14:10;2.95;;;2.75;;
14381;SDS011;7275;50.328;8.720;2023-06-10T14:16:37;2.80;;;2.60;;
14381;SDS011;7275;50.328;8.720;2023-06-10T14:19:08;2.92;;;2.67;;
14381;SDS011;7275;50.328;8.720;2023-06-10T14:21:36;5.20;;;2.50;;
14381;SDS011;7275;50.328;8.720;2023-06-10T14:24:05;5.07;;;2.42;;
14381;SDS011;7275;50.328;8.720;2023-06-10T14:26:33;2.88;;;2.67;;
14381;SDS011;7275;50.328;8.720;2023-06-10T14:29:01;2.67;;;2.47;;
14381;SDS011;7275;50.328;8.720;2023-06-10T14:31:29;5.53;;;2.50;;
14381;SDS011;7275;50.328;8.720;2023-06-10T14:33:57;3.28;;;2.67;;
14381;SDS011;7275;50.328;8.720;2023-06-10T14:36:25;2.60;;;2.40;;
14381;SDS011;7275;50.328;8.720;2023-06-10T14:38:52;2.83;;;2.53;;
14381;SDS011;7275;50.328;8.720;2023-06-10T14:41:22;3.13;;;2.55;;
14381;SDS011;7275;50.328;8.720;2023-06-10T14:43:50;2.45;;;2.25;;
14381;SDS011;7275;50.328;8.720;2023-06-10T14:46:17;2.50;;;2.30;;
14381;SDS011;7275;50.328;8.720;2023-06-10T14:48:47;2.95;;;2.60;;
14381;SDS011;7275;50.328;8.720;2023-06-10T14:51:15;2.97;;;2.40;;
14381;SDS011;7275;50.328;8.720;2023-06-10T14:53:43;2.92;;;2.47;;
14381;SDS011;7275;50.328;8.720;2023-06-10T14:56:11;2.50;;;2.30;;
14381;SDS011;7275;50.328;8.720;2023-06-10T14:58:40;2.88;;;2.58;;
14381;SDS011;7275;50.328;8.720;2023-06-10T15:01:08;2.67;;;2.47;;
14381;SDS011;7275;50.328;8.720;2023-06-10T15:03:36;2.60;;;2.40;;
14381;SDS011;7275;50.328;8.720;2023-06-10T15:06:04;2.97;;;2.40;;
14381;SDS011;7275;50.328;8.720;2023-06-10T15:08:31;2.40;;;2.20;;
14381;SDS011;7275;50.328;8.720;2023-06-10T15:10:59;3.30;;;2.45;;
14381;SDS011;7275;50.328;8.720;2023-06-10T15:13:27;2.53;;;2.33;;
14381;SDS011;7275;50.328;8.720;2023-06-10T15:15:56;2.90;;;2.60;;